Time;durP1;ratioP1;P1;durP2;ratioP2;P2;SDS_P1;SDS_P2;PMS_P1;PMS_P2;Temp;Humidity;BMP_temperature;BMP_pressure;BME280_temperature;BME280_humidity;BME280_pressure;Samples;Min_cycle;Max_cycle;Signal;HPM_P1;HPM_P2
2023/07/18 00:00:27;;;;;;;3.72;0.68;;;15.20;99.90;;;;;;4998284;28;20570;-71
2023/07/18 00:02:53;;;;;;;7.28;1.10;;;15.10;99.90;;;;;;4996928;28;20034;-70
2023/07/18 00:05:21;;;;;;;6.38;0.98;;;15.10;99.90;;;;;;5002211;28;20318;-69
2023/07/18 00:07:47;;;;;;;9.38;1.02;;;15.10;99.90;;;;;;4996663;28;20030;-71
2023/07/18 00:10:13;;;;;;;5.45;0.60;;;15.10;99.90;;;;;;5001371;28;20112;-71
2023/07/18 00:12:39;;;;;;;5.28;0.95;;;15.10;99.90;;;;;;4994929;28;20041;-70
2023/07/18 00:15:06;;;;;;;7.32;0.85;;;15.10;99.90;;;;;;5001255;28;20038;-71
2023/07/18 00:17:33;;;;;;;5.63;0.77;;;15.10;99.90;;;;;;5004380;28;20103;-71
2023/07/18 00:20:00;;;;;;;9.43;1.40;;;15.10;99.90;;;;;;5010009;28;20088;-70
2023/07/18 00:22:25;;;;;;;5.13;0.60;;;15.10;99.90;;;;;;4996617;28;20038;-71
2023/07/18 00:24:51;;;;;;;3.95;0.77;;;15.10;99.90;;;;;;4999154;28;20489;-70
2023/07/18 00:27:17;;;;;;;6.10;0.80;;;15.20;99.90;;;;;;4996200;28;20124;-69
2023/07/18 00:29:43;;;;;;;4.82;1.42;;;15.20;99.90;;;;;;4992696;28;20072;-71
2023/07/18 00:32:09;;;;;;;10.93;1.40;;;15.20;99.90;;;;;;4997715;28;20500;-69
2023/07/18 00:34:34;;;;;;;2.53;0.60;;;15.20;99.90;;;;;;4996828;28;20045;-70
2023/07/18 00:37:00;;;;;;;5.97;0.80;;;15.20;99.90;;;;;;5005525;28;20072;-69
2023/07/18 00:39:25;;;;;;;5.00;0.95;;;15.20;99.90;;;;;;5002709;28;20038;-71
2023/07/18 00:41:52;;;;;;;5.25;0.82;;;15.20;99.90;;;;;;4999401;28;20041;-68
2023/07/18 00:44:17;;;;;;;4.78;0.73;;;15.20;99.90;;;;;;5005116;28;20120;-69
2023/07/18 00:46:43;;;;;;;3.38;0.85;;;15.20;99.90;;;;;;4993533;28;20488;-70
2023/07/18 00:49:09;;;;;;;4.18;0.98;;;15.20;99.90;;;;;;4995293;28;20120;-71
2023/07/18 00:51:35;;;;;;;7.28;1.00;;;15.10;99.90;;;;;;5003941;28;20121;-70
2023/07/18 00:54:01;;;;;;;4.85;0.77;;;15.10;99.90;;;;;;4997592;28;20081;-69
2023/07/18 00:56:27;;;;;;;6.97;0.85;;;15.00;99.90;;;;;;5002310;28;20123;-70
2023/07/18 00:58:54;;;;;;;11.00;1.00;;;15.00;99.90;;;;;;4996207;28;20034;-70
2023/07/18 01:01:20;;;;;;;2.38;0.55;;;15.00;99.90;;;;;;4995016;28;20381;-70
2023/07/18 01:03:45;;;;;;;3.20;0.90;;;15.00;99.90;;;;;;4999371;28;20041;-70
2023/07/18 01:06:11;;;;;;;4.43;0.73;;;14.90;99.90;;;;;;4996691;28;20538;-70
2023/07/18 01:08:40;;;;;;;6.50;0.82;;;14.90;99.90;;;;;;4995578;28;20041;-70
2023/07/18 01:11:07;;;;;;;2.67;1.20;;;14.90;99.90;;;;;;4992742;28;20065;-69
2023/07/18 01:13:34;;;;;;;3.92;1.10;;;14.90;99.90;;;;;;4998000;28;20034;-69
2023/07/18 01:16:00;;;;;;;5.10;1.08;;;14.90;99.90;;;;;;4996362;28;20061;-70
2023/07/18 01:18:26;;;;;;;3.83;0.63;;;14.90;99.90;;;;;;4998426;28;20042;-69
2023/07/18 01:20:53;;;;;;;3.97;1.20;;;14.80;99.90;;;;;;4998651;28;20030;-69
2023/07/18 01:23:20;;;;;;;4.90;0.73;;;14.80;99.90;;;;;;5000042;28;20038;-70
2023/07/18 01:25:46;;;;;;;9.43;2.10;;;14.80;99.90;;;;;;4999197;28;20112;-69
2023/07/18 01:28:12;;;;;;;7.28;0.63;;;14.80;99.90;;;;;;4999218;28;20129;-69
2023/07/18 01:30:37;;;;;;;9.02;1.30;;;14.80;99.90;;;;;;4997938;28;20112;-69
2023/07/18 01:33:03;;;;;;;10.15;0.85;;;14.70;99.90;;;;;;5004291;28;20479;-71
2023/07/18 01:35:29;;;;;;;4.47;1.15;;;14.70;99.90;;;;;;4996234;28;20034;-70
2023/07/18 01:37:56;;;;;;;5.45;1.00;;;14.70;99.90;;;;;;4993527;28;20038;-69
2023/07/18 01:40:23;;;;;;;3.75;0.88;;;14.70;99.90;;;;;;4999953;28;20030;-70
2023/07/18 01:42:53;;;;;;;4.25;0.80;;;14.60;99.90;;;;;;4997790;28;20101;-71
2023/07/18 01:45:20;;;;;;;9.73;1.00;;;14.60;99.90;;;;;;4998114;28;20062;-70
2023/07/18 01:47:47;;;;;;;5.28;0.80;;;14.60;99.90;;;;;;4998155;28;20463;-70
2023/07/18 01:50:13;;;;;;;3.25;0.80;;;14.60;99.90;;;;;;5000541;28;20046;-70
2023/07/18 01:52:39;;;;;;;5.82;1.15;;;14.60;99.90;;;;;;4995977;28;20384;-70
2023/07/18 01:55:05;;;;;;;3.97;0.60;;;14.50;99.90;;;;;;5000833;28;20041;-70
2023/07/18 01:57:40;;;;;;;2.67;0.73;;;14.50;99.90;;;;;;4998693;28;20041;-72
2023/07/18 02:00:17;;;;;;;9.10;1.30;;;14.50;99.90;;;;;;5006175;28;20137;-70
2023/07/18 02:02:42;;;;;;;2.30;0.63;;;14.40;99.90;;;;;;5001271;28;20456;-69
2023/07/18 02:05:08;;;;;;;14.38;0.93;;;14.40;99.90;;;;;;5006154;28;20574;-69
2023/07/18 02:07:34;;;;;;;7.88;0.95;;;14.40;99.90;;;;;;5002655;28;20030;-70
2023/07/18 02:10:00;;;;;;;3.95;0.80;;;14.30;99.90;;;;;;5005715;28;20400;-71
2023/07/18 02:12:26;;;;;;;8.32;1.80;;;14.40;99.90;;;;;;4999924;28;20117;-71
2023/07/18 02:14:52;;;;;;;9.20;1.00;;;14.30;99.90;;;;;;5006674;28;20450;-71
2023/07/18 02:17:18;;;;;;;3.85;0.93;;;14.30;99.90;;;;;;5007822;28;20559;-71
2023/07/18 02:19:43;;;;;;;4.53;1.02;;;14.30;99.90;;;;;;4999195;28;20035;-69
2023/07/18 02:22:09;;;;;;;5.88;0.80;;;14.20;99.90;;;;;;5004784;28;20057;-69
2023/07/18 02:24:34;;;;;;;2.55;0.80;;;14.20;99.90;;;;;;5004726;28;20038;-69
2023/07/18 02:27:00;;;;;;;3.25;0.98;;;14.30;99.90;;;;;;5007576;28;20120;-70
2023/07/18 02:29:26;;;;;;;5.85;1.05;;;14.20;99.90;;;;;;5005094;28;20100;-71
2023/07/18 02:31:53;;;;;;;6.10;0.63;;;14.20;99.90;;;;;;4999503;28;20083;-70
2023/07/18 02:34:19;;;;;;;3.92;0.63;;;14.20;99.90;;;;;;4999356;28;20508;-69
2023/07/18 02:36:45;;;;;;;4.10;0.70;;;14.30;99.90;;;;;;5002660;28;20068;-70
2023/07/18 02:39:11;;;;;;;7.43;0.70;;;14.20;99.90;;;;;;5000922;28;20045;-70
2023/07/18 02:41:37;;;;;;;5.20;0.88;;;14.20;99.90;;;;;;5001212;28;20420;-70
2023/07/18 02:44:04;;;;;;;3.80;0.80;;;14.20;99.90;;;;;;4998228;28;20108;-69
2023/07/18 02:46:30;;;;;;;3.72;0.82;;;14.20;99.90;;;;;;5000674;28;20490;-71
2023/07/18 02:48:56;;;;;;;6.82;0.93;;;14.20;99.90;;;;;;5004830;28;20100;-70
2023/07/18 02:51:22;;;;;;;5.63;0.80;;;14.20;99.90;;;;;;5000848;28;20042;-70
2023/07/18 02:53:49;;;;;;;3.03;0.68;;;14.20;99.90;;;;;;4997876;28;20042;-69
2023/07/18 02:56:15;;;;;;;3.80;0.85;;;14.20;99.90;;;;;;5002572;28;20499;-70
2023/07/18 02:58:41;;;;;;;3.22;0.85;;;14.20;99.90;;;;;;4995607;28;20050;-70
2023/07/18 03:01:07;;;;;;;5.07;0.98;;;14.10;99.90;;;;;;4997585;28;20045;-69
2023/07/18 03:03:34;;;;;;;5.70;1.10;;;14.10;99.90;;;;;;5000136;28;20057;-69
2023/07/18 03:06:00;;;;;;;3.33;1.00;;;14.00;99.90;;;;;;4998744;28;20041;-69
2023/07/18 03:08:25;;;;;;;1.90;0.88;;;14.10;99.90;;;;;;5001890;28;20034;-71
2023/07/18 03:10:51;;;;;;;6.72;1.05;;;14.00;99.90;;;;;;5003438;28;20080;-69
2023/07/18 03:13:17;;;;;;;1.60;0.70;;;14.00;99.90;;;;;;4992175;28;20045;-69
2023/07/18 03:15:43;;;;;;;2.72;0.60;;;14.00;99.90;;;;;;5002172;28;20026;-70
2023/07/18 03:18:09;;;;;;;3.63;1.27;;;14.00;99.90;;;;;;4999146;28;20485;-70
2023/07/18 03:20:35;;;;;;;2.67;0.95;;;14.00;99.90;;;;;;4997952;28;20101;-70
2023/07/18 03:23:01;;;;;;;4.05;1.02;;;14.00;99.90;;;;;;4995371;28;20412;-70
2023/07/18 03:25:27;;;;;;;5.50;1.20;;;14.00;99.90;;;;;;4998656;28;20506;-71
2023/07/18 03:27:53;;;;;;;4.35;0.93;;;14.00;99.90;;;;;;4997232;28;20492;-70
2023/07/18 03:30:19;;;;;;;6.65;1.48;;;14.00;99.90;;;;;;4994885;28;20065;-70
2023/07/18 03:32:44;;;;;;;4.38;0.90;;;14.00;99.90;;;;;;5001240;28;20189;-70
2023/07/18 03:35:11;;;;;;;7.60;1.00;;;14.00;99.90;;;;;;5002226;28;20038;-69
2023/07/18 03:37:37;;;;;;;8.57;2.05;;;14.00;99.90;;;;;;5003624;28;20041;-70
2023/07/18 03:40:06;;;;;;;4.63;1.00;;;14.00;99.90;;;;;;4996875;28;20038;-69
2023/07/18 03:42:32;;;;;;;8.85;1.70;;;14.00;99.90;;;;;;4998720;28;20101;-73
2023/07/18 03:44:57;;;;;;;1.90;1.02;;;14.00;99.90;;;;;;4991114;28;20026;-70
2023/07/18 03:47:23;;;;;;;4.25;1.27;;;13.90;99.90;;;;;;5002281;28;20045;-71
2023/07/18 03:49:50;;;;;;;3.35;0.77;;;13.90;99.90;;;;;;5000498;28;20403;-69
2023/07/18 03:52:16;;;;;;;3.78;0.93;;;13.90;99.90;;;;;;5002652;28;20042;-70
2023/07/18 03:54:42;;;;;;;3.72;1.00;;;13.90;99.90;;;;;;4998545;28;20044;-70
2023/07/18 03:57:08;;;;;;;2.30;0.60;;;13.90;99.90;;;;;;4996940;28;20045;-70
2023/07/18 03:59:34;;;;;;;3.38;0.75;;;13.90;99.90;;;;;;5001523;28;20404;-70
2023/07/18 04:01:59;;;;;;;4.00;0.85;;;13.90;99.90;;;;;;5001477;28;20134;-70
2023/07/18 04:04:26;;;;;;;8.23;1.50;;;13.90;99.90;;;;;;4994553;28;20105;-70
2023/07/18 04:06:52;;;;;;;10.07;1.23;;;13.90;99.90;;;;;;4994659;28;20041;-70
2023/07/18 04:09:19;;;;;;;5.85;0.90;;;13.80;99.90;;;;;;4995931;28;20129;-70
2023/07/18 04:11:46;;;;;;;3.65;1.13;;;13.80;99.90;;;;;;5000229;28;20046;-70
2023/07/18 04:14:12;;;;;;;3.67;0.90;;;13.80;99.90;;;;;;5000610;28;20038;-70
2023/07/18 04:16:37;;;;;;;6.63;1.10;;;13.80;99.90;;;;;;4996811;28;20048;-70
2023/07/18 04:19:03;;;;;;;10.43;1.30;;;13.80;99.90;;;;;;4999602;28;20040;-70
2023/07/18 04:21:29;;;;;;;6.20;1.05;;;13.80;99.90;;;;;;5000897;28;20066;-72
2023/07/18 04:23:55;;;;;;;3.60;1.10;;;13.80;99.90;;;;;;4998012;28;20084;-70
2023/07/18 04:26:20;;;;;;;2.47;1.10;;;13.80;99.90;;;;;;4996029;28;20543;-70
2023/07/18 04:28:46;;;;;;;5.03;1.23;;;13.80;99.90;;;;;;4994390;28;20038;-72
2023/07/18 04:31:13;;;;;;;4.70;1.75;;;13.80;99.90;;;;;;5002300;28;20044;-71
2023/07/18 04:33:41;;;;;;;3.72;0.88;;;13.80;99.90;;;;;;5000112;28;20070;-70
2023/07/18 04:36:08;;;;;;;5.18;1.73;;;13.80;99.90;;;;;;5000327;28;20495;-70
2023/07/18 04:38:34;;;;;;;3.13;0.80;;;13.80;99.90;;;;;;4993130;28;20757;-69
2023/07/18 04:41:00;;;;;;;4.63;1.55;;;13.80;99.90;;;;;;4996203;28;20034;-69
2023/07/18 04:43:27;;;;;;;6.15;1.70;;;13.90;99.90;;;;;;4994334;28;20030;-70
2023/07/18 04:45:52;;;;;;;4.18;1.15;;;13.90;99.90;;;;;;4991498;28;20054;-71
2023/07/18 04:48:19;;;;;;;3.15;1.20;;;13.90;99.90;;;;;;4987578;28;20094;-71
2023/07/18 04:50:50;;;;;;;1.92;0.90;;;13.90;99.90;;;;;;4995986;28;20034;-70
2023/07/18 04:53:15;;;;;;;7.05;0.95;;;13.90;99.90;;;;;;4997743;28;20034;-70
2023/07/18 04:55:41;;;;;;;3.15;0.80;;;13.90;99.90;;;;;;4992529;28;20093;-70
2023/07/18 04:58:07;;;;;;;3.33;0.80;;;13.90;99.90;;;;;;4997282;28;20074;-70
2023/07/18 05:00:34;;;;;;;2.30;0.90;;;14.00;99.90;;;;;;4998602;28;20039;-71
2023/07/18 05:03:00;;;;;;;4.68;1.10;;;14.00;99.90;;;;;;4996034;28;20476;-70
2023/07/18 05:05:27;;;;;;;5.47;1.52;;;14.00;99.90;;;;;;4995046;28;20097;-70
2023/07/18 05:07:54;;;;;;;3.15;0.95;;;14.10;99.90;;;;;;4985915;28;20068;-70
2023/07/18 05:10:21;;;;;;;4.82;1.17;;;14.20;99.90;;;;;;4994831;28;20038;-70
2023/07/18 05:12:47;;;;;;;7.18;1.30;;;14.20;99.90;;;;;;4991719;28;20504;-70
2023/07/18 05:15:12;;;;;;;2.83;0.85;;;14.20;99.90;;;;;;4993541;28;20049;-70
2023/07/18 05:17:38;;;;;;;5.95;0.90;;;14.20;99.90;;;;;;4992562;28;20069;-69
2023/07/18 05:20:04;;;;;;;2.75;0.75;;;14.30;99.90;;;;;;4986467;28;20125;-70
2023/07/18 05:22:30;;;;;;;6.15;1.00;;;14.40;99.90;;;;;;4987781;28;20465;-71
2023/07/18 05:24:56;;;;;;;6.82;1.50;;;14.50;99.90;;;;;;4993455;28;20053;-70
2023/07/18 05:27:22;;;;;;;3.53;0.90;;;14.60;99.90;;;;;;4991462;28;20083;-71
2023/07/18 05:29:48;;;;;;;4.72;1.50;;;14.70;99.90;;;;;;4989994;28;20058;-69
2023/07/18 05:32:14;;;;;;;8.20;2.65;;;14.80;99.90;;;;;;4996932;28;20069;-69
2023/07/18 05:34:39;;;;;;;7.78;1.40;;;15.00;99.90;;;;;;4988648;28;20057;-70
2023/07/18 05:37:05;;;;;;;5.18;1.45;;;15.10;99.90;;;;;;4989791;28;20039;-69
2023/07/18 05:39:31;;;;;;;4.20;1.38;;;15.10;99.90;;;;;;4989927;28;20496;-70
2023/07/18 05:41:57;;;;;;;7.97;1.55;;;15.10;99.90;;;;;;4997792;28;20376;-69
2023/07/18 05:44:23;;;;;;;3.33;1.08;;;15.20;99.90;;;;;;4992608;28;20058;-71
2023/07/18 05:46:48;;;;;;;3.22;1.08;;;15.20;99.90;;;;;;4991897;28;20058;-69
2023/07/18 05:49:14;;;;;;;5.93;1.60;;;15.20;99.90;;;;;;4998864;28;20101;-70
2023/07/18 05:51:40;;;;;;;2.15;0.98;;;15.40;99.90;;;;;;4993377;28;20404;-70
2023/07/18 05:54:06;;;;;;;3.10;1.30;;;15.80;99.90;;;;;;4995127;28;20026;-69
2023/07/18 05:56:32;;;;;;;5.00;1.10;;;16.20;99.90;;;;;;4995626;28;20108;-72
2023/07/18 05:58:59;;;;;;;4.32;0.75;;;16.70;99.90;;;;;;4989662;28;20061;-69
2023/07/18 06:01:25;;;;;;;5.05;1.40;;;17.00;99.90;;;;;;4989869;28;20042;-70
2023/07/18 06:03:50;;;;;;;3.97;1.05;;;17.20;99.90;;;;;;4994859;28;20112;-69
2023/07/18 06:06:16;;;;;;;3.67;0.90;;;17.40;99.90;;;;;;4993439;28;20526;-70
2023/07/18 06:08:42;;;;;;;5.00;1.13;;;17.40;99.90;;;;;;4991442;28;20042;-69
2023/07/18 06:11:07;;;;;;;5.20;1.23;;;17.40;99.90;;;;;;4989855;28;20061;-69
2023/07/18 06:13:33;;;;;;;3.80;1.23;;;17.40;99.90;;;;;;4996116;28;20042;-69
2023/07/18 06:15:58;;;;;;;5.97;1.40;;;17.50;99.90;;;;;;4985198;28;20714;-69
2023/07/18 06:18:24;;;;;;;5.70;1.48;;;17.70;99.90;;;;;;4992128;28;20117;-68
2023/07/18 06:20:50;;;;;;;5.32;1.27;;;17.80;99.90;;;;;;4991854;28;20053;-68
2023/07/18 06:23:15;;;;;;;6.00;1.33;;;17.90;99.90;;;;;;4996626;28;20060;-68
2023/07/18 06:25:41;;;;;;;7.50;1.23;;;17.90;99.90;;;;;;4992199;28;20067;-71
2023/07/18 06:28:07;;;;;;;8.15;1.73;;;18.00;99.90;;;;;;4990628;28;20030;-71
2023/07/18 06:30:33;;;;;;;7.18;1.50;;;18.00;99.90;;;;;;4986924;28;20039;-70
2023/07/18 06:32:59;;;;;;;9.00;1.77;;;18.20;99.90;;;;;;4990893;28;20058;-70
2023/07/18 06:35:25;;;;;;;5.68;1.33;;;18.40;99.90;;;;;;4993981;28;20082;-69
2023/07/18 06:37:51;;;;;;;7.30;1.85;;;18.50;99.90;;;;;;4997960;28;20053;-69
2023/07/18 06:40:17;;;;;;;8.55;2.00;;;18.60;99.90;;;;;;4998038;28;20046;-68
2023/07/18 06:42:43;;;;;;;10.60;2.90;;;18.70;99.90;;;;;;4997330;28;20042;-71
2023/07/18 06:45:09;;;;;;;12.93;2.28;;;18.90;99.90;;;;;;4996218;28;20097;-68
2023/07/18 06:47:35;;;;;;;14.75;2.53;;;19.00;99.90;;;;;;4998364;28;20547;-69
2023/07/18 06:50:01;;;;;;;9.38;2.00;;;19.10;99.90;;;;;;4990676;28;20038;-68
2023/07/18 06:52:26;;;;;;;6.22;1.98;;;19.20;99.90;;;;;;4999615;28;20045;-69
2023/07/18 06:54:55;;;;;;;11.85;2.30;;;19.40;99.90;;;;;;4995532;28;20072;-68
2023/07/18 06:57:21;;;;;;;10.05;2.28;;;20.00;99.90;;;;;;5003029;28;20495;-70
2023/07/18 06:59:46;;;;;;;9.90;2.10;;;20.10;99.90;;;;;;4998918;28;20034;-70
2023/07/18 07:02:13;;;;;;;7.60;2.47;;;20.20;99.90;;;;;;4995991;28;20093;-70
2023/07/18 07:04:39;;;;;;;8.73;1.80;;;20.00;99.90;;;;;;4999441;28;20038;-71
2023/07/18 07:07:08;;;;;;;6.32;1.90;;;19.80;99.90;;;;;;4997859;28;20040;-70
2023/07/18 07:09:34;;;;;;;18.10;2.38;;;20.00;99.90;;;;;;5001335;28;20061;-70
2023/07/18 07:12:00;;;;;;;10.27;2.30;;;20.40;99.90;;;;;;4998301;28;20045;-69
2023/07/18 07:14:26;;;;;;;16.55;2.30;;;20.80;99.90;;;;;;5001900;28;20488;-70
2023/07/18 07:16:52;;;;;;;11.60;2.38;;;21.40;99.90;;;;;;4997998;28;20108;-70
2023/07/18 07:19:18;;;;;;;8.38;2.40;;;22.00;99.90;;;;;;5002099;28;20506;-72
2023/07/18 07:21:45;;;;;;;9.30;2.90;;;22.70;99.90;;;;;;4998211;28;20109;-70
2023/07/18 07:24:11;;;;;;;11.63;2.53;;;23.70;99.90;;;;;;5002812;28;20064;-70
2023/07/18 07:26:37;;;;;;;12.80;2.88;;;24.60;99.90;;;;;;4999639;28;20381;-70
2023/07/18 07:29:04;;;;;;;12.55;3.05;;;25.10;99.90;;;;;;4999075;28;20145;-70
2023/07/18 07:31:30;;;;;;;8.05;3.72;;;25.40;99.90;;;;;;4998331;28;20048;-69
2023/07/18 07:33:56;;;;;;;9.68;3.03;;;25.80;99.90;;;;;;4998412;28;20027;-70
2023/07/18 07:36:22;;;;;;;9.90;3.30;;;26.10;99.90;;;;;;5000106;28;20096;-71
2023/07/18 07:38:48;;;;;;;30.83;4.97;;;26.70;99.90;;;;;;4999251;28;20042;-71
2023/07/18 07:41:14;;;;;;;8.23;3.05;;;27.40;99.70;;;;;;4998913;28;20133;-70
2023/07/18 07:43:40;;;;;;;11.48;4.05;;;27.80;99.30;;;;;;4999854;28;20118;-72
2023/07/18 07:46:05;;;;;;;12.52;4.13;;;27.70;98.50;;;;;;4997915;28;20085;-71
2023/07/18 07:48:31;;;;;;;11.60;3.80;;;27.50;98.50;;;;;;4999900;28;20455;-72
2023/07/18 07:51:02;;;;;;;7.40;2.75;;;27.40;99.30;;;;;;4997004;28;20045;-72
2023/07/18 07:53:28;;;;;;;8.00;3.60;;;27.30;98.90;;;;;;4996886;28;20026;-71
2023/07/18 07:55:53;;;;;;;16.27;4.22;;;27.70;98.00;;;;;;4998192;28;20443;-71
2023/07/18 07:58:20;;;;;;;9.20;3.42;;;27.80;98.00;;;;;;5001974;28;20174;-70
2023/07/18 08:00:45;;;;;;;10.98;4.32;;;28.00;97.80;;;;;;5002011;28;20026;-71
2023/07/18 08:03:11;;;;;;;9.80;4.28;;;28.00;97.00;;;;;;4998862;28;20452;-71
2023/07/18 08:05:37;;;;;;;11.02;3.40;;;27.70;97.30;;;;;;5000202;28;20034;-70
2023/07/18 08:08:03;;;;;;;9.95;3.85;;;27.40;97.70;;;;;;5001035;28;20030;-70
2023/07/18 08:10:29;;;;;;;9.68;2.83;;;27.10;97.40;;;;;;4999501;28;20044;-70
2023/07/18 08:12:54;;;;;;;10.35;3.25;;;27.10;97.90;;;;;;5000557;28;20034;-70
2023/07/18 08:15:21;;;;;;;8.75;2.50;;;26.70;97.90;;;;;;5001791;28;20038;-70
2023/07/18 08:17:47;;;;;;;10.38;2.67;;;26.10;98.50;;;;;;5000514;28;20495;-70
2023/07/18 08:20:13;;;;;;;9.38;2.47;;;25.90;98.60;;;;;;5006880;28;20117;-69
2023/07/18 08:22:39;;;;;;;8.23;2.10;;;25.40;98.90;;;;;;4997555;28;20523;-71
2023/07/18 08:25:05;;;;;;;8.02;2.15;;;25.10;99.60;;;;;;5001750;28;20130;-70
2023/07/18 08:27:30;;;;;;;7.28;2.00;;;24.70;99.40;;;;;;5002007;28;20117;-70
2023/07/18 08:29:56;;;;;;;6.50;2.20;;;24.30;99.90;;;;;;4995933;28;20049;-71
2023/07/18 08:32:22;;;;;;;6.55;1.98;;;24.20;99.90;;;;;;4998887;28;20108;-73
2023/07/18 08:34:47;;;;;;;6.25;1.50;;;24.20;99.90;;;;;;5000293;28;20054;-70
2023/07/18 08:37:13;;;;;;;8.65;2.35;;;24.40;99.90;;;;;;5003192;28;20462;-71
2023/07/18 08:39:38;;;;;;;12.65;1.85;;;24.40;99.90;;;;;;5007280;28;20053;-72
2023/07/18 08:42:06;;;;;;;6.43;1.70;;;24.30;99.90;;;;;;5000412;28;20042;-70
2023/07/18 08:44:33;;;;;;;6.65;2.03;;;24.10;99.90;;;;;;4990773;28;20178;-71
2023/07/18 08:47:02;;;;;;;6.50;1.65;;;23.90;99.90;;;;;;4993175;28;20037;-71
2023/07/18 08:49:30;;;;;;;5.68;1.50;;;23.90;99.90;;;;;;5011713;28;20042;-69
2023/07/18 08:51:56;;;;;;;9.93;1.48;;;24.00;99.90;;;;;;4999427;28;20130;-70
2023/07/18 08:54:22;;;;;;;9.65;1.52;;;23.90;99.90;;;;;;5006837;28;20504;-70
2023/07/18 08:56:48;;;;;;;5.03;1.33;;;23.80;99.90;;;;;;5003848;28;20041;-72
2023/07/18 08:59:13;;;;;;;9.93;2.40;;;23.70;99.90;;;;;;4998805;28;20061;-71
2023/07/18 09:01:49;;;;;;;4.95;1.65;;;23.60;99.90;;;;;;5001189;28;20085;-71
2023/07/18 09:04:15;;;;;;;8.98;1.38;;;23.70;99.90;;;;;;4995240;28;20050;-71
2023/07/18 09:06:57;;;;;;;5.95;1.92;;;23.60;99.90;;;;;;5000019;28;20030;-70
2023/07/18 09:09:24;;;;;;;9.65;1.50;;;23.50;99.90;;;;;;4996002;28;20050;-70
2023/07/18 09:11:58;;;;;;;7.57;1.73;;;23.50;99.90;;;;;;5001117;28;20116;-71
2023/07/18 09:14:28;;;;;;;7.68;1.95;;;23.50;99.90;;;;;;4995088;28;20042;-70
2023/07/18 09:16:55;;;;;;;6.78;1.85;;;23.70;99.90;;;;;;4998856;28;20518;-71
2023/07/18 09:19:44;;;;;;;7.43;1.73;;;23.90;99.90;;;;;;4997445;28;20042;-70
2023/07/18 09:22:12;;;;;;;10.02;2.20;;;24.10;99.90;;;;;;5000000;28;20041;-69
2023/07/18 09:24:38;;;;;;;8.85;2.00;;;24.10;99.90;;;;;;4997064;28;20026;-69
2023/07/18 09:27:09;;;;;;;8.88;1.80;;;24.10;99.90;;;;;;4992929;28;20030;-70
2023/07/18 09:29:35;;;;;;;7.50;1.80;;;24.10;99.90;;;;;;4996891;28;20140;-70
2023/07/18 09:32:01;;;;;;;6.18;2.03;;;24.00;99.90;;;;;;4997949;28;20038;-70
2023/07/18 09:34:28;;;;;;;7.88;1.90;;;24.00;99.90;;;;;;4999509;28;20049;-72
2023/07/18 09:37:03;;;;;;;6.82;2.17;;;24.00;99.90;;;;;;4996957;28;20436;-70
2023/07/18 09:39:29;;;;;;;9.75;2.05;;;23.70;99.90;;;;;;4997972;28;20096;-70
2023/07/18 09:41:56;;;;;;;4.45;1.63;;;23.80;99.90;;;;;;4997220;28;20038;-70
2023/07/18 09:44:24;;;;;;;6.00;1.67;;;23.90;99.90;;;;;;4997553;28;20038;-70
2023/07/18 09:46:50;;;;;;;5.63;1.48;;;24.00;99.90;;;;;;4997480;28;20034;-70
2023/07/18 09:49:19;;;;;;;9.90;1.80;;;24.00;99.90;;;;;;5000112;28;20129;-69
2023/07/18 09:52:01;;;;;;;5.78;1.75;;;24.00;99.90;;;;;;4996311;28;20092;-70
2023/07/18 09:54:29;;;;;;;5.45;1.92;;;24.10;99.90;;;;;;4999824;28;20069;-70
2023/07/18 09:56:59;;;;;;;10.35;2.17;;;24.00;99.90;;;;;;5005064;28;20030;-68
2023/07/18 09:59:27;;;;;;;3.65;1.50;;;24.00;99.90;;;;;;4998000;28;20039;-68
2023/07/18 10:01:54;;;;;;;5.75;1.52;;;24.10;99.90;;;;;;4997377;28;20522;-69
2023/07/18 10:04:21;;;;;;;7.10;1.60;;;24.20;99.90;;;;;;4996408;28;20042;-70
2023/07/18 10:06:48;;;;;;;5.95;1.50;;;24.30;99.90;;;;;;4998939;28;20022;-69
2023/07/18 10:09:16;;;;;;;4.53;1.70;;;24.40;99.90;;;;;;5000456;28;20077;-70
2023/07/18 10:12:00;;;;;;;3.42;1.25;;;24.50;99.90;;;;;;4995466;28;20042;-70
2023/07/18 10:14:49;;;;;;;5.57;1.27;;;24.80;99.90;;;;;;4990629;28;20034;-69
2023/07/18 10:17:35;;;;;;;4.65;1.35;;;24.90;99.90;;;;;;4996872;28;20157;-69
2023/07/18 10:20:04;;;;;;;6.38;1.85;;;25.10;99.90;;;;;;5000382;28;20071;-71
2023/07/18 10:22:32;;;;;;;4.28;0.95;;;25.30;99.30;;;;;;4999565;28;20046;-72
2023/07/18 10:25:06;;;;;;;7.05;1.38;;;25.50;99.00;;;;;;5000299;28;20035;-71
2023/07/18 10:27:43;;;;;;;4.82;1.38;;;25.70;99.60;;;;;;5000255;28;20053;-72
2023/07/18 10:30:17;;;;;;;4.35;0.98;;;25.80;98.70;;;;;;4999639;28;20057;-71
2023/07/18 10:32:51;;;;;;;3.40;1.00;;;25.80;99.10;;;;;;4999420;28;20033;-69
2023/07/18 10:35:18;;;;;;;6.82;1.30;;;25.70;97.90;;;;;;4991939;28;20046;-70
2023/07/18 10:37:45;;;;;;;3.42;1.42;;;25.40;97.20;;;;;;4997665;28;20038;-70
2023/07/18 10:40:29;;;;;;;7.00;1.77;;;25.50;98.00;;;;;;5003456;28;20037;-70
2023/07/18 10:42:55;;;;;;;3.35;1.50;;;25.60;98.80;;;;;;4993530;28;20088;-70
2023/07/18 10:45:21;;;;;;;5.20;1.67;;;25.30;98.20;;;;;;4999774;28;20057;-70
2023/07/18 10:47:46;;;;;;;2.75;1.20;;;25.30;98.10;;;;;;4995695;28;20065;-71
2023/07/18 10:50:13;;;;;;;4.47;1.45;;;25.30;98.40;;;;;;5002649;28;20092;-70
2023/07/18 10:52:40;;;;;;;5.68;1.77;;;25.40;98.60;;;;;;4993137;28;20039;-71
2023/07/18 10:55:07;;;;;;;5.15;1.80;;;25.40;97.70;;;;;;4998635;28;20064;-71
2023/07/18 10:57:36;;;;;;;7.72;1.52;;;25.30;97.70;;;;;;4999563;28;20042;-70
2023/07/18 11:00:05;;;;;;;2.70;1.02;;;25.00;98.40;;;;;;4999329;28;20057;-70
2023/07/18 11:02:49;;;;;;;2.95;1.13;;;24.90;98.80;;;;;;4998486;28;20097;-70
2023/07/18 11:05:14;;;;;;;10.43;2.13;;;24.70;99.00;;;;;;4995008;28;20133;-70
2023/07/18 11:07:43;;;;;;;5.45;1.52;;;24.70;98.70;;;;;;4993653;28;20117;-69
2023/07/18 11:10:10;;;;;;;7.30;1.95;;;24.90;99.40;;;;;;4999444;28;20038;-72
2023/07/18 11:12:36;;;;;;;3.28;1.25;;;25.00;98.80;;;;;;4993200;28;20500;-70
2023/07/18 11:15:06;;;;;;;3.97;1.40;;;25.20;98.60;;;;;;5001608;28;20081;-71
2023/07/18 11:17:31;;;;;;;5.35;1.33;;;25.40;98.50;;;;;;4997608;28;20034;-70
2023/07/18 11:19:57;;;;;;;7.47;1.38;;;25.50;98.00;;;;;;4999019;28;20037;-70
2023/07/18 11:22:23;;;;;;;5.05;1.63;;;25.70;98.00;;;;;;4999664;28;20443;-71
2023/07/18 11:24:51;;;;;;;2.95;1.17;;;25.70;97.50;;;;;;4999214;28;20073;-70
2023/07/18 11:27:18;;;;;;;3.88;1.20;;;25.70;97.30;;;;;;5000040;28;20411;-70
2023/07/18 11:30:08;;;;;;;3.15;0.85;;;25.70;95.80;;;;;;4996817;28;20038;-70
2023/07/18 11:32:40;;;;;;;4.32;1.63;;;25.70;96.40;;;;;;4996907;28;20073;-74
2023/07/18 11:35:19;;;;;;;5.28;1.13;;;25.60;96.60;;;;;;4992194;28;20092;-71
2023/07/18 11:37:46;;;;;;;3.50;1.02;;;25.70;96.80;;;;;;5001768;28;20031;-70
2023/07/18 11:40:19;;;;;;;4.38;1.23;;;25.70;96.80;;;;;;5002436;28;20038;-70
2023/07/18 11:42:50;;;;;;;2.92;0.93;;;25.70;96.90;;;;;;4997751;28;20034;-70
2023/07/18 11:45:17;;;;;;;5.95;1.13;;;25.70;96.10;;;;;;5006183;28;20045;-70
2023/07/18 11:47:45;;;;;;;5.20;0.95;;;25.70;96.40;;;;;;5006241;28;20029;-71
2023/07/18 11:50:11;;;;;;;2.88;1.17;;;25.70;97.00;;;;;;4997610;28;20040;-70
2023/07/18 11:52:37;;;;;;;2.47;0.80;;;25.70;95.40;;;;;;4995523;28;20030;-71
2023/07/18 11:55:03;;;;;;;3.60;0.73;;;25.70;95.10;;;;;;5000432;28;20049;-70
2023/07/18 11:57:29;;;;;;;2.15;0.70;;;25.80;95.10;;;;;;4993891;28;20403;-70
2023/07/18 11:59:54;;;;;;;10.05;1.45;;;25.90;96.50;;;;;;4998549;28;20042;-70
2023/07/18 12:02:20;;;;;;;3.42;0.82;;;25.80;95.40;;;;;;5000940;28;20065;-70
2023/07/18 12:04:45;;;;;;;2.33;0.65;;;25.80;95.60;;;;;;4998648;28;20137;-70
2023/07/18 12:07:11;;;;;;;1.38;0.30;;;25.80;95.00;;;;;;4998879;28;20573;-70
2023/07/18 12:09:37;;;;;;;2.92;0.52;;;25.70;94.70;;;;;;4996159;28;20135;-69
2023/07/18 12:12:03;;;;;;;1.40;0.50;;;25.80;93.80;;;;;;4998485;28;20508;-69
2023/07/18 12:14:29;;;;;;;6.20;0.73;;;25.70;92.80;;;;;;4996026;28;20116;-69
2023/07/18 12:16:55;;;;;;;1.52;0.45;;;25.60;94.30;;;;;;5001038;28;20026;-69
2023/07/18 12:19:21;;;;;;;1.95;0.50;;;25.50;93.90;;;;;;4998166;28;20045;-69
2023/07/18 12:21:49;;;;;;;2.42;0.65;;;25.40;93.20;;;;;;4997224;28;20034;-70
2023/07/18 12:24:15;;;;;;;1.63;0.50;;;25.40;93.20;;;;;;5002595;28;20042;-69
2023/07/18 12:26:40;;;;;;;2.75;0.63;;;25.30;94.10;;;;;;5002333;28;20034;-69
2023/07/18 12:29:06;;;;;;;3.10;0.40;;;25.30;94.10;;;;;;5000146;28;20038;-69
2023/07/18 12:31:35;;;;;;;1.75;0.47;;;25.30;94.60;;;;;;4996263;28;20033;-69
2023/07/18 12:34:00;;;;;;;4.53;1.15;;;25.30;94.40;;;;;;4997975;28;20034;-70
2023/07/18 12:36:26;;;;;;;1.52;0.40;;;25.20;93.30;;;;;;4999711;28;20045;-70
2023/07/18 12:38:52;;;;;;;2.05;0.38;;;25.20;93.70;;;;;;4996883;28;20515;-70
2023/07/18 12:41:17;;;;;;;1.73;0.30;;;25.20;93.30;;;;;;4998522;28;20514;-71
2023/07/18 12:43:43;;;;;;;1.65;0.30;;;25.10;92.90;;;;;;4998393;28;20379;-70